sensor_id;sensor_type;location;lat;lon;timestamp;P1;durP1;ratioP1;P2;durP2;ratioP2
39782;SDS011;25462;51.164;17.100;2022-08-20T00:03:43;13.10;;;6.60;;
39782;SDS011;25462;51.164;17.100;2022-08-20T00:08:55;9.60;;;6.80;;
39782;SDS011;25462;51.164;17.100;2022-08-20T00:13:59;13.30;;;7.90;;
39782;SDS011;25462;51.164;17.100;2022-08-20T00:19:05;8.90;;;6.10;;
39782;SDS011;25462;51.164;17.100;2022-08-20T00:24:09;9.50;;;6.30;;
39782;SDS011;25462;51.164;17.100;2022-08-20T00:29:11;13.20;;;7.20;;
39782;SDS011;25462;51.164;17.100;2022-08-20T00:34:14;8.90;;;6.30;;
39782;SDS011;25462;51.164;17.100;2022-08-20T00:39:21;12.20;;;7.50;;
39782;SDS011;25462;51.164;17.100;2022-08-20T00:44:24;11.90;;;6.80;;
39782;SDS011;25462;51.164;17.100;2022-08-20T00:49:27;6.80;;;6.10;;
39782;SDS011;25462;51.164;17.100;2022-08-20T00:54:38;11.60;;;7.00;;
39782;SDS011;25462;51.164;17.100;2022-08-20T00:59:54;10.80;;;6.50;;
39782;SDS011;25462;51.164;17.100;2022-08-20T01:04:57;9.90;;;6.40;;
39782;SDS011;25462;51.164;17.100;2022-08-20T01:10:00;10.30;;;6.20;;
39782;SDS011;25462;51.164;17.100;2022-08-20T01:15:06;10.20;;;6.10;;
39782;SDS011;25462;51.164;17.100;2022-08-20T01:20:14;6.50;;;5.60;;
39782;SDS011;25462;51.164;17.100;2022-08-20T01:25:27;12.80;;;6.80;;
39782;SDS011;25462;51.164;17.100;2022-08-20T01:30:37;9.00;;;6.00;;
39782;SDS011;25462;51.164;17.100;2022-08-20T01:35:41;7.10;;;6.30;;
39782;SDS011;25462;51.164;17.100;2022-08-20T01:40:56;9.40;;;6.00;;
39782;SDS011;25462;51.164;17.100;2022-08-20T01:46:01;8.80;;;7.20;;
39782;SDS011;25462;51.164;17.100;2022-08-20T01:51:08;11.30;;;6.50;;
39782;SDS011;25462;51.164;17.100;2022-08-20T01:56:11;12.20;;;6.40;;
39782;SDS011;25462;51.164;17.100;2022-08-20T02:06:23;9.10;;;7.90;;
39782;SDS011;25462;51.164;17.100;2022-08-20T02:11:27;15.40;;;8.50;;
39782;SDS011;25462;51.164;17.100;2022-08-20T02:16:33;11.40;;;7.50;;
39782;SDS011;25462;51.164;17.100;2022-08-20T02:21:39;10.40;;;8.20;;
39782;SDS011;25462;51.164;17.100;2022-08-20T02:26:44;9.80;;;7.70;;
39782;SDS011;25462;51.164;17.100;2022-08-20T02:31:46;12.00;;;8.50;;
39782;SDS011;25462;51.164;17.100;2022-08-20T02:37:08;10.20;;;7.80;;
39782;SDS011;25462;51.164;17.100;2022-08-20T02:42:11;12.50;;;9.70;;
39782;SDS011;25462;51.164;17.100;2022-08-20T02:47:13;11.60;;;8.80;;
39782;SDS011;25462;51.164;17.100;2022-08-20T02:52:15;8.30;;;7.50;;
39782;SDS011;25462;51.164;17.100;2022-08-20T02:57:17;8.00;;;7.20;;
39782;SDS011;25462;51.164;17.100;2022-08-20T03:02:23;11.50;;;8.10;;
39782;SDS011;25462;51.164;17.100;2022-08-20T03:07:26;11.10;;;9.90;;
39782;SDS011;25462;51.164;17.100;2022-08-20T03:12:28;12.50;;;9.70;;
39782;SDS011;25462;51.164;17.100;2022-08-20T03:17:30;12.60;;;10.30;;
39782;SDS011;25462;51.164;17.100;2022-08-20T03:22:32;15.40;;;10.70;;
39782;SDS011;25462;51.164;17.100;2022-08-20T03:27:34;14.70;;;10.40;;
39782;SDS011;25462;51.164;17.100;2022-08-20T03:32:37;10.20;;;8.40;;
39782;SDS011;25462;51.164;17.100;2022-08-20T03:37:40;28.40;;;25.60;;
39782;SDS011;25462;51.164;17.100;2022-08-20T03:42:49;26.30;;;22.10;;
39782;SDS011;25462;51.164;17.100;2022-08-20T03:47:53;16.50;;;13.80;;
39782;SDS011;25462;51.164;17.100;2022-08-20T03:52:56;17.70;;;15.80;;
39782;SDS011;25462;51.164;17.100;2022-08-20T03:58:00;18.00;;;15.50;;
39782;SDS011;25462;51.164;17.100;2022-08-20T04:03:06;20.70;;;18.60;;
39782;SDS011;25462;51.164;17.100;2022-08-20T04:08:16;23.60;;;18.40;;
39782;SDS011;25462;51.164;17.100;2022-08-20T04:13:21;20.40;;;17.60;;
39782;SDS011;25462;51.164;17.100;2022-08-20T04:18:24;20.30;;;16.30;;
39782;SDS011;25462;51.164;17.100;2022-08-20T04:23:27;16.50;;;14.70;;
39782;SDS011;25462;51.164;17.100;2022-08-20T04:28:31;21.00;;;16.70;;
39782;SDS011;25462;51.164;17.100;2022-08-20T04:33:35;16.30;;;12.80;;
39782;SDS011;25462;51.164;17.100;2022-08-20T04:38:37;16.40;;;12.80;;
39782;SDS011;25462;51.164;17.100;2022-08-20T04:43:52;15.50;;;13.80;;
39782;SDS011;25462;51.164;17.100;2022-08-20T04:48:55;21.50;;;15.00;;
39782;SDS011;25462;51.164;17.100;2022-08-20T04:53:58;17.40;;;15.60;;
39782;SDS011;25462;51.164;17.100;2022-08-20T04:59:01;18.80;;;16.80;;
39782;SDS011;25462;51.164;17.100;2022-08-20T05:04:03;19.90;;;15.40;;
39782;SDS011;25462;51.164;17.100;2022-08-20T05:09:05;14.80;;;13.20;;
39782;SDS011;25462;51.164;17.100;2022-08-20T05:14:13;16.30;;;14.60;;
39782;SDS011;25462;51.164;17.100;2022-08-20T05:19:15;17.10;;;15.30;;
39782;SDS011;25462;51.164;17.100;2022-08-20T05:24:18;19.30;;;17.30;;
39782;SDS011;25462;51.164;17.100;2022-08-20T05:29:21;19.40;;;16.40;;
39782;SDS011;25462;51.164;17.100;2022-08-20T05:34:24;18.80;;;16.70;;
39782;SDS011;25462;51.164;17.100;2022-08-20T05:39:26;24.70;;;19.80;;
39782;SDS011;25462;51.164;17.100;2022-08-20T05:44:29;22.60;;;19.40;;
39782;SDS011;25462;51.164;17.100;2022-08-20T05:49:32;23.30;;;21.00;;
39782;SDS011;25462;51.164;17.100;2022-08-20T05:54:35;26.40;;;23.60;;
39782;SDS011;25462;51.164;17.100;2022-08-20T05:59:38;30.40;;;27.20;;
39782;SDS011;25462;51.164;17.100;2022-08-20T06:09:44;34.70;;;30.10;;
39782;SDS011;25462;51.164;17.100;2022-08-20T06:14:47;34.40;;;29.30;;
39782;SDS011;25462;51.164;17.100;2022-08-20T06:19:49;31.30;;;28.20;;
39782;SDS011;25462;51.164;17.100;2022-08-20T06:24:51;31.80;;;28.40;;
39782;SDS011;25462;51.164;17.100;2022-08-20T06:34:55;33.20;;;29.80;;
39782;SDS011;25462;51.164;17.100;2022-08-20T06:40:08;29.90;;;26.80;;
39782;SDS011;25462;51.164;17.100;2022-08-20T06:45:15;31.10;;;27.40;;
39782;SDS011;25462;51.164;17.100;2022-08-20T06:50:24;30.90;;;27.70;;
39782;SDS011;25462;51.164;17.100;2022-08-20T06:55:36;33.50;;;27.60;;
39782;SDS011;25462;51.164;17.100;2022-08-20T07:00:52;28.10;;;25.10;;
39782;SDS011;25462;51.164;17.100;2022-08-20T07:05:54;30.90;;;27.60;;
39782;SDS011;25462;51.164;17.100;2022-08-20T07:11:00;31.60;;;27.70;;
39782;SDS011;25462;51.164;17.100;2022-08-20T07:16:06;28.10;;;25.00;;
39782;SDS011;25462;51.164;17.100;2022-08-20T07:21:11;33.50;;;26.80;;
39782;SDS011;25462;51.164;17.100;2022-08-20T07:26:13;32.10;;;27.60;;
39782;SDS011;25462;51.164;17.100;2022-08-20T07:31:16;33.70;;;28.90;;
39782;SDS011;25462;51.164;17.100;2022-08-20T07:36:37;31.10;;;26.40;;
39782;SDS011;25462;51.164;17.100;2022-08-20T07:41:39;29.10;;;26.00;;
39782;SDS011;25462;51.164;17.100;2022-08-20T07:46:45;31.00;;;25.50;;
39782;SDS011;25462;51.164;17.100;2022-08-20T07:51:48;26.40;;;23.70;;
39782;SDS011;25462;51.164;17.100;2022-08-20T07:56:51;27.90;;;24.90;;
39782;SDS011;25462;51.164;17.100;2022-08-20T08:01:54;28.10;;;25.20;;
39782;SDS011;25462;51.164;17.100;2022-08-20T08:06:57;27.40;;;24.60;;
39782;SDS011;25462;51.164;17.100;2022-08-20T08:12:02;28.00;;;25.00;;
39782;SDS011;25462;51.164;17.100;2022-08-20T08:17:05;28.40;;;25.50;;
39782;SDS011;25462;51.164;17.100;2022-08-20T08:22:09;25.70;;;23.20;;
39782;SDS011;25462;51.164;17.100;2022-08-20T08:27:16;24.80;;;22.30;;
39782;SDS011;25462;51.164;17.100;2022-08-20T08:32:20;26.50;;;23.90;;
39782;SDS011;25462;51.164;17.100;2022-08-20T08:37:22;25.70;;;22.90;;
39782;SDS011;25462;51.164;17.100;2022-08-20T08:42:36;27.40;;;24.40;;
39782;SDS011;25462;51.164;17.100;2022-08-20T08:47:45;25.70;;;23.10;;
39782;SDS011;25462;51.164;17.100;2022-08-20T08:52:53;26.20;;;23.60;;
39782;SDS011;25462;51.164;17.100;2022-08-20T08:58:03;28.80;;;25.20;;
39782;SDS011;25462;51.164;17.100;2022-08-20T09:03:21;25.00;;;22.50;;
39782;SDS011;25462;51.164;17.100;2022-08-20T09:08:35;27.00;;;24.10;;
39782;SDS011;25462;51.164;17.100;2022-08-20T09:13:45;24.80;;;22.40;;
39782;SDS011;25462;51.164;17.100;2022-08-20T09:18:52;22.50;;;20.30;;
39782;SDS011;25462;51.164;17.100;2022-08-20T09:23:54;22.20;;;20.00;;
39782;SDS011;25462;51.164;17.100;2022-08-20T09:28:59;24.00;;;21.70;;
39782;SDS011;25462;51.164;17.100;2022-08-20T09:34:01;20.90;;;18.20;;
39782;SDS011;25462;51.164;17.100;2022-08-20T09:39:13;25.80;;;23.30;;
39782;SDS011;25462;51.164;17.100;2022-08-20T09:44:21;24.00;;;21.70;;
39782;SDS011;25462;51.164;17.100;2022-08-20T09:49:28;23.10;;;20.70;;
39782;SDS011;25462;51.164;17.100;2022-08-20T09:54:32;23.70;;;21.40;;
39782;SDS011;25462;51.164;17.100;2022-08-20T09:59:35;22.20;;;20.00;;
39782;SDS011;25462;51.164;17.100;2022-08-20T10:04:38;23.50;;;21.00;;
39782;SDS011;25462;51.164;17.100;2022-08-20T10:09:42;21.10;;;19.00;;
39782;SDS011;25462;51.164;17.100;2022-08-20T10:14:44;20.40;;;18.40;;
39782;SDS011;25462;51.164;17.100;2022-08-20T10:19:49;22.60;;;20.30;;
39782;SDS011;25462;51.164;17.100;2022-08-20T10:24:54;20.50;;;17.80;;
39782;SDS011;25462;51.164;17.100;2022-08-20T10:29:56;19.30;;;17.50;;
39782;SDS011;25462;51.164;17.100;2022-08-20T10:34:59;21.40;;;19.00;;
39782;SDS011;25462;51.164;17.100;2022-08-20T10:40:04;25.10;;;20.00;;
39782;SDS011;25462;51.164;17.100;2022-08-20T10:45:11;22.40;;;20.30;;
39782;SDS011;25462;51.164;17.100;2022-08-20T10:50:16;22.70;;;20.20;;
39782;SDS011;25462;51.164;17.100;2022-08-20T10:55:21;22.40;;;20.00;;
39782;SDS011;25462;51.164;17.100;2022-08-20T11:00:24;23.90;;;21.40;;
39782;SDS011;25462;51.164;17.100;2022-08-20T11:05:27;21.30;;;19.10;;
39782;SDS011;25462;51.164;17.100;2022-08-20T11:10:34;22.10;;;19.90;;
39782;SDS011;25462;51.164;17.100;2022-08-20T11:15:44;21.80;;;19.50;;
39782;SDS011;25462;51.164;17.100;2022-08-20T11:20:47;22.20;;;19.70;;
39782;SDS011;25462;51.164;17.100;2022-08-20T11:25:51;20.80;;;18.90;;
39782;SDS011;25462;51.164;17.100;2022-08-20T11:31:04;21.50;;;19.30;;
39782;SDS011;25462;51.164;17.100;2022-08-20T11:36:07;20.30;;;18.20;;
39782;SDS011;25462;51.164;17.100;2022-08-20T11:41:09;22.30;;;19.30;;
39782;SDS011;25462;51.164;17.100;2022-08-20T11:46:17;19.70;;;17.80;;
39782;SDS011;25462;51.164;17.100;2022-08-20T11:51:29;25.10;;;19.00;;
39782;SDS011;25462;51.164;17.100;2022-08-20T11:56:50;19.50;;;17.50;;
39782;SDS011;25462;51.164;17.100;2022-08-20T12:01:53;19.90;;;17.80;;
39782;SDS011;25462;51.164;17.100;2022-08-20T12:07:09;19.20;;;17.30;;
39782;SDS011;25462;51.164;17.100;2022-08-20T12:12:16;18.10;;;16.60;;
39782;SDS011;25462;51.164;17.100;2022-08-20T12:17:27;18.50;;;16.80;;
39782;SDS011;25462;51.164;17.100;2022-08-20T12:22:33;17.30;;;15.50;;
39782;SDS011;25462;51.164;17.100;2022-08-20T12:27:35;19.20;;;15.80;;
39782;SDS011;25462;51.164;17.100;2022-08-20T12:32:40;19.20;;;17.10;;
39782;SDS011;25462;51.164;17.100;2022-08-20T12:37:43;18.70;;;16.70;;
39782;SDS011;25462;51.164;17.100;2022-08-20T12:42:48;18.20;;;16.60;;
39782;SDS011;25462;51.164;17.100;2022-08-20T12:47:51;18.80;;;17.00;;
39782;SDS011;25462;51.164;17.100;2022-08-20T12:53:07;18.60;;;16.70;;
39782;SDS011;25462;51.164;17.100;2022-08-20T12:58:19;20.40;;;16.00;;
39782;SDS011;25462;51.164;17.100;2022-08-20T13:03:21;18.00;;;16.10;;
39782;SDS011;25462;51.164;17.100;2022-08-20T13:08:23;17.50;;;15.70;;
39782;SDS011;25462;51.164;17.100;2022-08-20T13:13:25;17.20;;;15.50;;
39782;SDS011;25462;51.164;17.100;2022-08-20T13:18:28;22.00;;;17.50;;
39782;SDS011;25462;51.164;17.100;2022-08-20T13:23:30;17.30;;;14.90;;
39782;SDS011;25462;51.164;17.100;2022-08-20T13:28:32;16.30;;;14.10;;
39782;SDS011;25462;51.164;17.100;2022-08-20T13:33:35;18.30;;;14.80;;
39782;SDS011;25462;51.164;17.100;2022-08-20T13:38:42;16.20;;;14.70;;
39782;SDS011;25462;51.164;17.100;2022-08-20T13:43:43;15.80;;;14.10;;
39782;SDS011;25462;51.164;17.100;2022-08-20T13:48:46;15.50;;;13.80;;
39782;SDS011;25462;51.164;17.100;2022-08-20T13:53:49;14.30;;;12.90;;
39782;SDS011;25462;51.164;17.100;2022-08-20T13:58:52;14.10;;;12.30;;
39782;SDS011;25462;51.164;17.100;2022-08-20T14:03:54;15.40;;;12.80;;
39782;SDS011;25462;51.164;17.100;2022-08-20T14:08:57;13.50;;;12.10;;
39782;SDS011;25462;51.164;17.100;2022-08-20T14:13:59;14.10;;;12.10;;
39782;SDS011;25462;51.164;17.100;2022-08-20T14:19:02;15.80;;;13.20;;
39782;SDS011;25462;51.164;17.100;2022-08-20T14:24:05;13.20;;;11.70;;
39782;SDS011;25462;51.164;17.100;2022-08-20T14:29:07;14.50;;;11.80;;
39782;SDS011;25462;51.164;17.100;2022-08-20T14:34:09;18.90;;;12.30;;
39782;SDS011;25462;51.164;17.100;2022-08-20T14:39:11;14.60;;;12.80;;
39782;SDS011;25462;51.164;17.100;2022-08-20T14:44:13;13.30;;;11.80;;
39782;SDS011;25462;51.164;17.100;2022-08-20T14:49:15;13.80;;;11.00;;
39782;SDS011;25462;51.164;17.100;2022-08-20T14:54:17;14.20;;;12.40;;
39782;SDS011;25462;51.164;17.100;2022-08-20T14:59:19;23.00;;;11.20;;
39782;SDS011;25462;51.164;17.100;2022-08-20T15:04:21;17.00;;;12.30;;
39782;SDS011;25462;51.164;17.100;2022-08-20T15:09:23;12.80;;;11.00;;
39782;SDS011;25462;51.164;17.100;2022-08-20T15:14:25;18.30;;;12.60;;
39782;SDS011;25462;51.164;17.100;2022-08-20T15:19:30;18.40;;;13.20;;
39782;SDS011;25462;51.164;17.100;2022-08-20T15:24:32;17.20;;;14.90;;
39782;SDS011;25462;51.164;17.100;2022-08-20T15:29:34;19.60;;;16.60;;
39782;SDS011;25462;51.164;17.100;2022-08-20T15:34:36;18.40;;;15.50;;
39782;SDS011;25462;51.164;17.100;2022-08-20T15:39:40;22.90;;;15.00;;
39782;SDS011;25462;51.164;17.100;2022-08-20T15:44:44;24.90;;;16.40;;
39782;SDS011;25462;51.164;17.100;2022-08-20T15:49:48;17.50;;;11.20;;
39782;SDS011;25462;51.164;17.100;2022-08-20T15:54:58;12.50;;;7.50;;
39782;SDS011;25462;51.164;17.100;2022-08-20T16:21:48;6.20;;;4.00;;
39782;SDS011;25462;51.164;17.100;2022-08-20T16:27:13;4.40;;;3.80;;
39782;SDS011;25462;51.164;17.100;2022-08-20T16:43:31;3.90;;;3.00;;
39782;SDS011;25462;51.164;17.100;2022-08-20T16:48:36;2.70;;;2.50;;
39782;SDS011;25462;51.164;17.100;2022-08-20T16:53:44;3.80;;;2.70;;
39782;SDS011;25462;51.164;17.100;2022-08-20T16:58:46;3.30;;;2.60;;
39782;SDS011;25462;51.164;17.100;2022-08-20T17:03:58;5.50;;;2.80;;
39782;SDS011;25462;51.164;17.100;2022-08-20T17:09:03;2.60;;;2.40;;
39782;SDS011;25462;51.164;17.100;2022-08-20T17:14:28;4.80;;;3.00;;
39782;SDS011;25462;51.164;17.100;2022-08-20T17:19:37;4.00;;;3.50;;
39782;SDS011;25462;51.164;17.100;2022-08-20T17:24:41;3.20;;;2.90;;
39782;SDS011;25462;51.164;17.100;2022-08-20T17:30:03;3.20;;;2.90;;
39782;SDS011;25462;51.164;17.100;2022-08-20T17:35:09;4.10;;;3.70;;
39782;SDS011;25462;51.164;17.100;2022-08-20T17:45:35;4.90;;;4.20;;
39782;SDS011;25462;51.164;17.100;2022-08-20T17:50:42;4.50;;;4.20;;
39782;SDS011;25462;51.164;17.100;2022-08-20T17:55:47;5.40;;;4.90;;
39782;SDS011;25462;51.164;17.100;2022-08-20T18:00:51;6.50;;;4.10;;
39782;SDS011;25462;51.164;17.100;2022-08-20T18:05:59;4.30;;;3.90;;
39782;SDS011;25462;51.164;17.100;2022-08-20T18:16:15;4.80;;;4.40;;
39782;SDS011;25462;51.164;17.100;2022-08-20T18:27:03;5.30;;;4.80;;
39782;SDS011;25462;51.164;17.100;2022-08-20T18:32:45;7.90;;;4.90;;
39782;SDS011;25462;51.164;17.100;2022-08-20T18:37:39;4.90;;;4.40;;
39782;SDS011;25462;51.164;17.100;2022-08-20T18:42:44;5.90;;;4.80;;
39782;SDS011;25462;51.164;17.100;2022-08-20T18:47:46;8.90;;;4.50;;
39782;SDS011;25462;51.164;17.100;2022-08-20T18:52:49;5.50;;;4.90;;
39782;SDS011;25462;51.164;17.100;2022-08-20T18:58:01;6.40;;;4.90;;
39782;SDS011;25462;51.164;17.100;2022-08-20T19:08:34;5.30;;;4.60;;
39782;SDS011;25462;51.164;17.100;2022-08-20T19:13:49;6.70;;;6.10;;
39782;SDS011;25462;51.164;17.100;2022-08-20T19:19:00;6.30;;;4.90;;
39782;SDS011;25462;51.164;17.100;2022-08-20T19:24:06;6.10;;;5.20;;
39782;SDS011;25462;51.164;17.100;2022-08-20T19:29:12;6.40;;;5.80;;
39782;SDS011;25462;51.164;17.100;2022-08-20T19:34:21;6.50;;;5.80;;
39782;SDS011;25462;51.164;17.100;2022-08-20T19:39:26;7.50;;;5.70;;
39782;SDS011;25462;51.164;17.100;2022-08-20T19:55:03;6.70;;;5.90;;
39782;SDS011;25462;51.164;17.100;2022-08-20T20:00:09;9.00;;;6.20;;
39782;SDS011;25462;51.164;17.100;2022-08-20T20:05:18;7.00;;;6.40;;
39782;SDS011;25462;51.164;17.100;2022-08-20T20:10:23;7.10;;;6.40;;
39782;SDS011;25462;51.164;17.100;2022-08-20T20:15:37;6.90;;;6.00;;
39782;SDS011;25462;51.164;17.100;2022-08-20T20:20:44;7.10;;;6.50;;
39782;SDS011;25462;51.164;17.100;2022-08-20T20:26:03;8.10;;;7.20;;
39782;SDS011;25462;51.164;17.100;2022-08-20T20:31:10;9.50;;;8.60;;
39782;SDS011;25462;51.164;17.100;2022-08-20T20:36:15;9.90;;;8.90;;
39782;SDS011;25462;51.164;17.100;2022-08-20T20:41:21;9.90;;;8.90;;
39782;SDS011;25462;51.164;17.100;2022-08-20T20:46:28;10.20;;;9.30;;
39782;SDS011;25462;51.164;17.100;2022-08-20T20:51:34;10.40;;;9.50;;
39782;SDS011;25462;51.164;17.100;2022-08-20T20:56:54;11.30;;;10.10;;
39782;SDS011;25462;51.164;17.100;2022-08-20T21:01:58;10.90;;;9.50;;
39782;SDS011;25462;51.164;17.100;2022-08-20T21:07:05;12.00;;;10.70;;
39782;SDS011;25462;51.164;17.100;2022-08-20T21:12:12;11.60;;;10.00;;
39782;SDS011;25462;51.164;17.100;2022-08-20T21:17:16;11.60;;;9.50;;
39782;SDS011;25462;51.164;17.100;2022-08-20T21:22:25;9.70;;;8.70;;
39782;SDS011;25462;51.164;17.100;2022-08-20T21:27:29;10.90;;;9.90;;
39782;SDS011;25462;51.164;17.100;2022-08-20T21:32:35;10.60;;;9.60;;
39782;SDS011;25462;51.164;17.100;2022-08-20T21:37:51;8.50;;;7.70;;
39782;SDS011;25462;51.164;17.100;2022-08-20T21:42:53;7.10;;;6.50;;
39782;SDS011;25462;51.164;17.100;2022-08-20T21:47:55;9.90;;;7.30;;
39782;SDS011;25462;51.164;17.100;2022-08-20T21:58:02;7.70;;;6.40;;
39782;SDS011;25462;51.164;17.100;2022-08-20T22:03:05;5.90;;;5.40;;
39782;SDS011;25462;51.164;17.100;2022-08-20T22:08:08;6.30;;;5.70;;
39782;SDS011;25462;51.164;17.100;2022-08-20T22:13:11;7.50;;;5.50;;
39782;SDS011;25462;51.164;17.100;2022-08-20T22:18:15;6.10;;;5.50;;
39782;SDS011;25462;51.164;17.100;2022-08-20T22:23:22;6.00;;;5.40;;
39782;SDS011;25462;51.164;17.100;2022-08-20T22:28:28;5.70;;;5.20;;
39782;SDS011;25462;51.164;17.100;2022-08-20T22:33:36;6.30;;;5.10;;
39782;SDS011;25462;51.164;17.100;2022-08-20T22:38:48;5.10;;;4.60;;
39782;SDS011;25462;51.164;17.100;2022-08-20T22:44:00;5.20;;;4.70;;
39782;SDS011;25462;51.164;17.100;2022-08-20T22:49:06;5.20;;;4.80;;
39782;SDS011;25462;51.164;17.100;2022-08-20T22:54:15;5.40;;;5.00;;
39782;SDS011;25462;51.164;17.100;2022-08-20T22:59:23;6.10;;;5.00;;
39782;SDS011;25462;51.164;17.100;2022-08-20T23:04:36;5.60;;;5.20;;
39782;SDS011;25462;51.164;17.100;2022-08-20T23:09:45;6.70;;;6.00;;
39782;SDS011;25462;51.164;17.100;2022-08-20T23:14:58;5.80;;;5.30;;
39782;SDS011;25462;51.164;17.100;2022-08-20T23:20:06;6.80;;;6.20;;
39782;SDS011;25462;51.164;17.100;2022-08-20T23:25:15;6.80;;;6.20;;
39782;SDS011;25462;51.164;17.100;2022-08-20T23:30:17;7.60;;;6.90;;
39782;SDS011;25462;51.164;17.100;2022-08-20T23:35:20;9.40;;;6.70;;
39782;SDS011;25462;51.164;17.100;2022-08-20T23:40:26;6.80;;;6.30;;
39782;SDS011;25462;51.164;17.100;2022-08-20T23:45:29;9.60;;;7.50;;
39782;SDS011;25462;51.164;17.100;2022-08-20T23:55:34;8.00;;;7.20;;
